sensor_id;sensor_type;location;lat;lon;timestamp;pressure;altitude;pressure_sealevel;temperature;humidity
85055;BME280;75391;48.300;16.352;2024-01-27T00:01:51;100799.91;;;10.38;79.06
85055;BME280;75391;48.300;16.352;2024-01-27T00:04:16;100828.47;;;10.24;79.41
85055;BME280;75391;48.300;16.352;2024-01-27T00:06:42;100809.63;;;10.36;79.48
85055;BME280;75391;48.300;16.352;2024-01-27T00:09:07;100809.91;;;10.27;76.52
85055;BME280;75391;48.300;16.352;2024-01-27T00:11:33;100814.53;;;11.36;76.25
85055;BME280;75391;48.300;16.352;2024-01-27T00:13:58;100831.06;;;11.16;76.67
85055;BME280;75391;48.300;16.352;2024-01-27T00:16:24;100854.59;;;10.66;74.19
85055;BME280;75391;48.300;16.352;2024-01-27T00:18:49;100849.31;;;10.66;74.08
85055;BME280;75391;48.300;16.352;2024-01-27T00:21:15;100844.66;;;11.32;70.98
85055;BME280;75391;48.300;16.352;2024-01-27T00:23:40;100842.13;;;11.83;69.29
85055;BME280;75391;48.300;16.352;2024-01-27T00:26:07;100855.03;;;10.82;68.86
85055;BME280;75391;48.300;16.352;2024-01-27T00:28:32;100849.00;;;11.61;69.99
85055;BME280;75391;48.300;16.352;2024-01-27T00:30:58;100861.91;;;11.17;71.37
85055;BME280;75391;48.300;16.352;2024-01-27T00:33:23;100899.91;;;10.54;71.40
85055;BME280;75391;48.300;16.352;2024-01-27T00:35:49;100870.34;;;11.00;71.51
85055;BME280;75391;48.300;16.352;2024-01-27T00:38:14;100885.88;;;11.67;70.44
85055;BME280;75391;48.300;16.352;2024-01-27T00:40:40;100883.41;;;11.06;70.17
85055;BME280;75391;48.300;16.352;2024-01-27T00:43:05;100888.69;;;10.77;68.93
85055;BME280;75391;48.300;16.352;2024-01-27T00:45:30;100887.34;;;11.49;69.08
85055;BME280;75391;48.300;16.352;2024-01-27T00:47:56;100901.09;;;10.75;70.32
85055;BME280;75391;48.300;16.352;2024-01-27T00:50:22;100902.19;;;11.27;67.91
85055;BME280;75391;48.300;16.352;2024-01-27T00:52:48;100892.56;;;11.24;67.89
85055;BME280;75391;48.300;16.352;2024-01-27T00:55:14;100904.25;;;10.87;68.72
85055;BME280;75391;48.300;16.352;2024-01-27T00:57:39;100917.81;;;10.75;67.32
85055;BME280;75391;48.300;16.352;2024-01-27T01:00:06;100901.97;;;10.75;67.06
85055;BME280;75391;48.300;16.352;2024-01-27T01:02:32;100902.53;;;11.16;67.90
85055;BME280;75391;48.300;16.352;2024-01-27T01:04:58;100908.88;;;11.66;66.33
85055;BME280;75391;48.300;16.352;2024-01-27T01:07:23;100902.66;;;10.82;67.05
85055;BME280;75391;48.300;16.352;2024-01-27T01:09:49;100912.34;;;10.81;67.10
85055;BME280;75391;48.300;16.352;2024-01-27T01:12:14;100910.81;;;10.74;67.90
85055;BME280;75391;48.300;16.352;2024-01-27T01:14:40;100909.31;;;10.33;70.28
85055;BME280;75391;48.300;16.352;2024-01-27T01:17:05;100916.78;;;10.15;70.85
85055;BME280;75391;48.300;16.352;2024-01-27T01:19:31;100899.84;;;9.88;72.64
85055;BME280;75391;48.300;16.352;2024-01-27T01:21:56;100926.03;;;9.98;73.02
85055;BME280;75391;48.300;16.352;2024-01-27T01:24:21;100938.50;;;9.55;72.68
85055;BME280;75391;48.300;16.352;2024-01-27T01:26:47;100926.28;;;9.87;71.52
85055;BME280;75391;48.300;16.352;2024-01-27T01:29:12;100939.44;;;10.26;70.39
85055;BME280;75391;48.300;16.352;2024-01-27T01:31:38;100963.41;;;9.42;69.82
85055;BME280;75391;48.300;16.352;2024-01-27T01:34:03;100940.16;;;9.97;71.09
85055;BME280;75391;48.300;16.352;2024-01-27T01:36:28;100940.97;;;9.99;72.16
85055;BME280;75391;48.300;16.352;2024-01-27T01:38:54;100947.34;;;10.27;69.96
85055;BME280;75391;48.300;16.352;2024-01-27T01:41:19;100949.78;;;10.35;69.82
85055;BME280;75391;48.300;16.352;2024-01-27T01:43:45;100949.47;;;10.11;68.74
85055;BME280;75391;48.300;16.352;2024-01-27T01:46:10;100949.56;;;10.07;68.43
85055;BME280;75391;48.300;16.352;2024-01-27T01:48:36;100950.63;;;10.35;67.30
85055;BME280;75391;48.300;16.352;2024-01-27T01:51:01;100958.66;;;10.32;66.96
85055;BME280;75391;48.300;16.352;2024-01-27T01:53:27;100969.03;;;10.04;68.56
85055;BME280;75391;48.300;16.352;2024-01-27T01:55:53;100951.09;;;10.51;68.97
85055;BME280;75391;48.300;16.352;2024-01-27T01:58:18;100952.03;;;10.49;68.10
85055;BME280;75391;48.300;16.352;2024-01-27T02:00:44;100950.56;;;9.67;66.90
85055;BME280;75391;48.300;16.352;2024-01-27T02:03:11;100951.88;;;9.85;68.06
85055;BME280;75391;48.300;16.352;2024-01-27T02:05:36;100959.97;;;9.77;68.57
85055;BME280;75391;48.300;16.352;2024-01-27T02:08:02;100967.91;;;10.13;69.11
85055;BME280;75391;48.300;16.352;2024-01-27T02:10:27;100970.28;;;9.51;69.13
85055;BME280;75391;48.300;16.352;2024-01-27T02:12:53;100983.91;;;10.07;69.11
85055;BME280;75391;48.300;16.352;2024-01-27T02:15:18;100984.53;;;10.18;68.08
85055;BME280;75391;48.300;16.352;2024-01-27T02:17:44;100992.75;;;10.06;69.95
85055;BME280;75391;48.300;16.352;2024-01-27T02:20:09;101003.72;;;9.50;70.64
85055;BME280;75391;48.300;16.352;2024-01-27T02:22:35;101003.78;;;9.49;72.04
85055;BME280;75391;48.300;16.352;2024-01-27T02:25:02;101004.22;;;10.05;70.92
85055;BME280;75391;48.300;16.352;2024-01-27T02:27:28;101000.75;;;9.25;70.67
85055;BME280;75391;48.300;16.352;2024-01-27T02:29:53;100998.75;;;9.75;71.13
85055;BME280;75391;48.300;16.352;2024-01-27T02:32:19;100995.94;;;9.84;71.10
85055;BME280;75391;48.300;16.352;2024-01-27T02:34:44;101004.03;;;9.75;71.63
85055;BME280;75391;48.300;16.352;2024-01-27T02:37:10;101004.63;;;9.88;69.57
85055;BME280;75391;48.300;16.352;2024-01-27T02:39:35;101010.31;;;9.29;71.34
85055;BME280;75391;48.300;16.352;2024-01-27T02:42:00;101003.16;;;10.12;71.01
85055;BME280;75391;48.300;16.352;2024-01-27T02:44:26;100998.94;;;9.27;70.90
85055;BME280;75391;48.300;16.352;2024-01-27T02:46:51;100996.50;;;9.97;69.75
85055;BME280;75391;48.300;16.352;2024-01-27T02:49:17;101011.53;;;9.94;68.18
85055;BME280;75391;48.300;16.352;2024-01-27T02:51:42;101016.06;;;9.48;68.78
85055;BME280;75391;48.300;16.352;2024-01-27T02:54:08;101024.69;;;9.16;68.89
85055;BME280;75391;48.300;16.352;2024-01-27T02:56:33;101029.91;;;9.61;68.60
85055;BME280;75391;48.300;16.352;2024-01-27T02:58:59;101027.28;;;9.98;69.40
85055;BME280;75391;48.300;16.352;2024-01-27T03:01:24;101024.81;;;9.52;70.52
85055;BME280;75391;48.300;16.352;2024-01-27T03:03:50;101023.88;;;9.93;68.87
85055;BME280;75391;48.300;16.352;2024-01-27T03:06:15;101030.84;;;9.96;67.30
85055;BME280;75391;48.300;16.352;2024-01-27T03:08:40;101041.25;;;9.64;67.99
85055;BME280;75391;48.300;16.352;2024-01-27T03:11:06;101041.75;;;9.82;69.25
85055;BME280;75391;48.300;16.352;2024-01-27T03:13:31;101045.53;;;9.70;73.67
85055;BME280;75391;48.300;16.352;2024-01-27T03:15:57;101047.22;;;10.11;80.88
85055;BME280;75391;48.300;16.352;2024-01-27T03:18:22;101050.38;;;9.50;88.48
85055;BME280;75391;48.300;16.352;2024-01-27T03:20:48;101054.19;;;9.35;89.18
85055;BME280;75391;48.300;16.352;2024-01-27T03:23:13;101067.13;;;9.49;96.44
85055;BME280;75391;48.300;16.352;2024-01-27T03:25:38;101060.72;;;9.99;98.64
85055;BME280;75391;48.300;16.352;2024-01-27T03:28:04;101070.25;;;9.66;99.90
85055;BME280;75391;48.300;16.352;2024-01-27T03:30:29;101061.94;;;8.99;100.00
85055;BME280;75391;48.300;16.352;2024-01-27T03:32:55;101085.88;;;9.35;100.00
85055;BME280;75391;48.300;16.352;2024-01-27T03:35:20;101104.63;;;9.64;100.00
85055;BME280;75391;48.300;16.352;2024-01-27T03:37:46;101103.59;;;9.28;100.00
85055;BME280;75391;48.300;16.352;2024-01-27T03:40:11;101104.22;;;9.84;100.00
85055;BME280;75391;48.300;16.352;2024-01-27T03:42:37;101113.91;;;10.24;96.81
85055;BME280;75391;48.300;16.352;2024-01-27T03:45:03;101120.75;;;9.51;100.00
85055;BME280;75391;48.300;16.352;2024-01-27T03:47:28;101132.09;;;9.09;100.00
85055;BME280;75391;48.300;16.352;2024-01-27T03:49:53;101137.66;;;8.39;100.00
85055;BME280;75391;48.300;16.352;2024-01-27T03:52:19;101131.22;;;8.56;100.00
85055;BME280;75391;48.300;16.352;2024-01-27T03:54:44;101149.16;;;9.36;100.00
85055;BME280;75391;48.300;16.352;2024-01-27T03:57:10;101133.69;;;9.63;100.00
85055;BME280;75391;48.300;16.352;2024-01-27T03:59:35;101146.09;;;9.59;100.00
85055;BME280;75391;48.300;16.352;2024-01-27T04:02:01;101131.16;;;8.60;100.00
85055;BME280;75391;48.300;16.352;2024-01-27T04:04:26;101147.88;;;9.11;100.00
85055;BME280;75391;48.300;16.352;2024-01-27T04:06:52;101140.75;;;8.67;100.00
85055;BME280;75391;48.300;16.352;2024-01-27T04:09:17;101151.13;;;8.76;100.00
85055;BME280;75391;48.300;16.352;2024-01-27T04:11:42;101138.78;;;8.79;100.00
85055;BME280;75391;48.300;16.352;2024-01-27T04:14:08;101132.91;;;8.62;100.00
85055;BME280;75391;48.300;16.352;2024-01-27T04:16:34;101148.88;;;8.51;100.00
85055;BME280;75391;48.300;16.352;2024-01-27T04:18:59;101140.41;;;8.28;100.00
85055;BME280;75391;48.300;16.352;2024-01-27T04:21:25;101132.97;;;8.57;100.00
85055;BME280;75391;48.300;16.352;2024-01-27T04:23:50;101127.66;;;8.61;100.00
85055;BME280;75391;48.300;16.352;2024-01-27T04:26:16;101120.53;;;8.07;100.00
85055;BME280;75391;48.300;16.352;2024-01-27T04:28:41;101113.81;;;7.85;100.00
85055;BME280;75391;48.300;16.352;2024-01-27T04:31:07;101102.75;;;8.77;100.00
85055;BME280;75391;48.300;16.352;2024-01-27T04:33:32;101098.88;;;8.48;100.00
85055;BME280;75391;48.300;16.352;2024-01-27T04:35:58;101112.59;;;8.09;100.00
85055;BME280;75391;48.300;16.352;2024-01-27T04:38:23;101108.81;;;8.28;100.00
85055;BME280;75391;48.300;16.352;2024-01-27T04:40:50;101111.97;;;8.51;100.00
85055;BME280;75391;48.300;16.352;2024-01-27T04:43:16;101115.09;;;8.19;100.00
85055;BME280;75391;48.300;16.352;2024-01-27T04:45:42;101122.25;;;8.10;100.00
85055;BME280;75391;48.300;16.352;2024-01-27T04:48:08;101118.63;;;8.18;100.00
85055;BME280;75391;48.300;16.352;2024-01-27T04:50:33;101129.38;;;8.00;100.00
85055;BME280;75391;48.300;16.352;2024-01-27T04:52:59;101136.81;;;7.69;100.00
85055;BME280;75391;48.300;16.352;2024-01-27T04:55:24;101126.75;;;8.00;100.00
85055;BME280;75391;48.300;16.352;2024-01-27T04:57:49;101144.06;;;7.50;100.00
85055;BME280;75391;48.300;16.352;2024-01-27T05:00:15;101138.63;;;7.64;100.00
85055;BME280;75391;48.300;16.352;2024-01-27T05:02:41;101124.91;;;7.39;100.00
85055;BME280;75391;48.300;16.352;2024-01-27T05:05:08;101137.69;;;7.71;100.00
85055;BME280;75391;48.300;16.352;2024-01-27T05:07:33;101129.38;;;7.31;100.00
85055;BME280;75391;48.300;16.352;2024-01-27T05:09:59;101124.28;;;7.14;100.00
85055;BME280;75391;48.300;16.352;2024-01-27T05:12:24;101138.81;;;7.50;100.00
85055;BME280;75391;48.300;16.352;2024-01-27T05:14:50;101134.38;;;7.55;100.00
85055;BME280;75391;48.300;16.352;2024-01-27T05:17:15;101153.00;;;7.37;100.00
85055;BME280;75391;48.300;16.352;2024-01-27T05:19:41;101143.06;;;7.62;100.00
85055;BME280;75391;48.300;16.352;2024-01-27T05:22:07;101144.50;;;7.87;100.00
85055;BME280;75391;48.300;16.352;2024-01-27T05:24:32;101150.28;;;8.12;100.00
85055;BME280;75391;48.300;16.352;2024-01-27T05:26:58;101141.53;;;8.13;100.00
85055;BME280;75391;48.300;16.352;2024-01-27T05:29:23;101167.22;;;7.94;100.00
85055;BME280;75391;48.300;16.352;2024-01-27T05:31:49;101163.88;;;7.80;100.00
85055;BME280;75391;48.300;16.352;2024-01-27T05:34:14;101173.38;;;7.95;100.00
85055;BME280;75391;48.300;16.352;2024-01-27T05:36:39;101166.03;;;8.18;100.00
85055;BME280;75391;48.300;16.352;2024-01-27T05:39:05;101184.13;;;7.75;100.00
85055;BME280;75391;48.300;16.352;2024-01-27T05:41:30;101187.50;;;7.03;100.00
85055;BME280;75391;48.300;16.352;2024-01-27T05:43:56;101172.09;;;7.54;100.00
85055;BME280;75391;48.300;16.352;2024-01-27T05:46:22;101181.88;;;7.40;100.00
85055;BME280;75391;48.300;16.352;2024-01-27T05:48:47;101183.31;;;7.70;100.00
85055;BME280;75391;48.300;16.352;2024-01-27T05:51:13;101194.81;;;7.61;100.00
85055;BME280;75391;48.300;16.352;2024-01-27T05:53:38;101182.06;;;8.00;100.00
85055;BME280;75391;48.300;16.352;2024-01-27T05:56:04;101187.97;;;8.20;100.00
85055;BME280;75391;48.300;16.352;2024-01-27T05:58:29;101194.41;;;7.15;100.00
85055;BME280;75391;48.300;16.352;2024-01-27T06:00:55;101204.28;;;6.90;100.00
85055;BME280;75391;48.300;16.352;2024-01-27T06:03:20;101195.50;;;7.79;100.00
85055;BME280;75391;48.300;16.352;2024-01-27T06:05:46;101191.97;;;7.83;100.00
85055;BME280;75391;48.300;16.352;2024-01-27T06:08:11;101203.81;;;7.42;100.00
85055;BME280;75391;48.300;16.352;2024-01-27T06:10:37;101195.06;;;7.38;100.00
85055;BME280;75391;48.300;16.352;2024-01-27T06:13:03;101198.59;;;7.37;100.00
85055;BME280;75391;48.300;16.352;2024-01-27T06:15:28;101205.34;;;7.61;100.00
85055;BME280;75391;48.300;16.352;2024-01-27T06:17:54;101224.09;;;7.28;100.00
85055;BME280;75391;48.300;16.352;2024-01-27T06:20:19;101222.59;;;7.90;100.00
85055;BME280;75391;48.300;16.352;2024-01-27T06:22:45;101221.22;;;7.54;100.00
85055;BME280;75391;48.300;16.352;2024-01-27T06:25:10;101234.81;;;7.06;100.00
85055;BME280;75391;48.300;16.352;2024-01-27T06:27:36;101241.13;;;6.84;100.00
85055;BME280;75391;48.300;16.352;2024-01-27T06:30:02;101245.09;;;7.32;100.00
85055;BME280;75391;48.300;16.352;2024-01-27T06:32:28;101250.47;;;7.17;100.00
85055;BME280;75391;48.300;16.352;2024-01-27T06:34:53;101253.06;;;7.23;100.00
85055;BME280;75391;48.300;16.352;2024-01-27T06:37:18;101248.53;;;7.42;100.00
85055;BME280;75391;48.300;16.352;2024-01-27T06:39:44;101259.06;;;7.40;100.00
85055;BME280;75391;48.300;16.352;2024-01-27T06:42:09;101268.81;;;7.28;100.00
85055;BME280;75391;48.300;16.352;2024-01-27T06:44:35;101272.44;;;7.17;100.00
85055;BME280;75391;48.300;16.352;2024-01-27T06:47:00;101272.28;;;7.33;100.00
85055;BME280;75391;48.300;16.352;2024-01-27T06:49:26;101279.63;;;6.91;100.00
85055;BME280;75391;48.300;16.352;2024-01-27T06:51:51;101283.81;;;7.18;100.00
85055;BME280;75391;48.300;16.352;2024-01-27T06:54:16;101280.09;;;7.42;100.00
85055;BME280;75391;48.300;16.352;2024-01-27T06:56:42;101274.94;;;7.28;100.00
85055;BME280;75391;48.300;16.352;2024-01-27T06:59:07;101279.88;;;7.63;100.00
85055;BME280;75391;48.300;16.352;2024-01-27T07:01:33;101275.47;;;7.68;100.00
85055;BME280;75391;48.300;16.352;2024-01-27T07:03:58;101276.59;;;8.26;100.00
85055;BME280;75391;48.300;16.352;2024-01-27T07:06:24;101279.16;;;7.46;100.00
85055;BME280;75391;48.300;16.352;2024-01-27T07:08:49;101284.28;;;7.63;100.00
85055;BME280;75391;48.300;16.352;2024-01-27T07:11:15;101290.28;;;7.79;100.00
85055;BME280;75391;48.300;16.352;2024-01-27T07:13:41;101280.91;;;8.32;100.00
85055;BME280;75391;48.300;16.352;2024-01-27T07:16:06;101293.47;;;8.08;100.00
85055;BME280;75391;48.300;16.352;2024-01-27T07:18:32;101286.53;;;8.01;100.00
85055;BME280;75391;48.300;16.352;2024-01-27T07:20:57;101284.03;;;7.89;100.00
85055;BME280;75391;48.300;16.352;2024-01-27T07:23:23;101293.16;;;7.54;100.00
85055;BME280;75391;48.300;16.352;2024-01-27T07:25:48;101285.78;;;7.87;100.00
85055;BME280;75391;48.300;16.352;2024-01-27T07:28:13;101291.94;;;7.89;100.00
85055;BME280;75391;48.300;16.352;2024-01-27T07:30:39;101289.38;;;7.81;100.00
85055;BME280;75391;48.300;16.352;2024-01-27T07:33:04;101278.34;;;8.24;100.00
85055;BME280;75391;48.300;16.352;2024-01-27T07:35:30;101273.81;;;8.35;100.00
85055;BME280;75391;48.300;16.352;2024-01-27T07:37:55;101291.19;;;7.74;100.00
85055;BME280;75391;48.300;16.352;2024-01-27T07:40:21;101294.97;;;7.46;100.00
85055;BME280;75391;48.300;16.352;2024-01-27T07:42:46;101290.13;;;7.92;100.00
85055;BME280;75391;48.300;16.352;2024-01-27T07:45:11;101274.75;;;8.29;100.00
85055;BME280;75391;48.300;16.352;2024-01-27T07:47:37;101284.94;;;7.85;100.00
85055;BME280;75391;48.300;16.352;2024-01-27T07:50:03;101279.44;;;8.04;100.00
85055;BME280;75391;48.300;16.352;2024-01-27T07:52:28;101272.44;;;8.07;100.00
85055;BME280;75391;48.300;16.352;2024-01-27T07:54:54;101286.47;;;8.06;100.00
85055;BME280;75391;48.300;16.352;2024-01-27T07:57:20;101301.41;;;8.03;100.00
85055;BME280;75391;48.300;16.352;2024-01-27T07:59:46;101301.81;;;7.67;100.00
85055;BME280;75391;48.300;16.352;2024-01-27T08:02:11;101281.09;;;8.15;100.00
85055;BME280;75391;48.300;16.352;2024-01-27T08:04:38;101299.91;;;7.83;100.00
85055;BME280;75391;48.300;16.352;2024-01-27T08:07:03;101297.13;;;7.93;100.00
85055;BME280;75391;48.300;16.352;2024-01-27T08:09:29;101303.97;;;8.13;100.00
85055;BME280;75391;48.300;16.352;2024-01-27T08:11:54;101315.31;;;8.19;100.00
85055;BME280;75391;48.300;16.352;2024-01-27T08:14:20;101310.81;;;8.27;100.00
85055;BME280;75391;48.300;16.352;2024-01-27T08:16:45;101307.69;;;8.69;100.00
85055;BME280;75391;48.300;16.352;2024-01-27T08:19:11;101301.69;;;9.18;100.00
85055;BME280;75391;48.300;16.352;2024-01-27T08:21:36;101310.19;;;8.78;100.00
85055;BME280;75391;48.300;16.352;2024-01-27T08:24:01;101303.88;;;8.90;100.00
85055;BME280;75391;48.300;16.352;2024-01-27T08:26:27;101311.25;;;7.86;100.00
85055;BME280;75391;48.300;16.352;2024-01-27T08:28:52;101333.47;;;7.59;100.00
85055;BME280;75391;48.300;16.352;2024-01-27T08:31:18;101300.91;;;8.49;100.00
85055;BME280;75391;48.300;16.352;2024-01-27T08:33:44;101308.81;;;7.66;100.00
85055;BME280;75391;48.300;16.352;2024-01-27T08:36:15;101309.41;;;9.31;100.00
85055;BME280;75391;48.300;16.352;2024-01-27T08:38:41;101307.63;;;8.73;100.00
85055;BME280;75391;48.300;16.352;2024-01-27T08:41:06;101295.28;;;8.03;100.00
85055;BME280;75391;48.300;16.352;2024-01-27T08:43:32;101282.97;;;8.05;100.00
85055;BME280;75391;48.300;16.352;2024-01-27T08:45:57;101290.94;;;8.71;100.00
85055;BME280;75391;48.300;16.352;2024-01-27T08:48:23;101300.25;;;8.95;100.00
85055;BME280;75391;48.300;16.352;2024-01-27T08:50:48;101302.47;;;8.64;100.00
85055;BME280;75391;48.300;16.352;2024-01-27T08:53:14;101286.63;;;9.24;100.00
85055;BME280;75391;48.300;16.352;2024-01-27T08:55:39;101290.97;;;8.70;100.00
85055;BME280;75391;48.300;16.352;2024-01-27T08:58:05;101292.94;;;7.75;100.00
85055;BME280;75391;48.300;16.352;2024-01-27T09:00:30;101328.59;;;8.06;100.00
85055;BME280;75391;48.300;16.352;2024-01-27T09:02:55;101308.09;;;8.34;100.00
85055;BME280;75391;48.300;16.352;2024-01-27T09:05:21;101313.53;;;8.20;100.00
85055;BME280;75391;48.300;16.352;2024-01-27T09:07:46;101330.16;;;8.94;100.00
85055;BME280;75391;48.300;16.352;2024-01-27T09:10:12;101321.28;;;8.34;100.00
85055;BME280;75391;48.300;16.352;2024-01-27T09:12:37;101312.53;;;9.55;100.00
85055;BME280;75391;48.300;16.352;2024-01-27T09:15:03;101310.75;;;9.00;100.00
85055;BME280;75391;48.300;16.352;2024-01-27T09:17:28;101315.00;;;9.64;100.00
85055;BME280;75391;48.300;16.352;2024-01-27T09:19:54;101301.59;;;9.75;100.00
85055;BME280;75391;48.300;16.352;2024-01-27T09:22:19;101309.09;;;9.50;98.77
85055;BME280;75391;48.300;16.352;2024-01-27T09:24:45;101305.13;;;9.23;97.02
85055;BME280;75391;48.300;16.352;2024-01-27T09:27:10;101311.22;;;9.77;91.45
85055;BME280;75391;48.300;16.352;2024-01-27T09:29:36;101313.03;;;9.23;87.21
85055;BME280;75391;48.300;16.352;2024-01-27T09:32:01;101313.06;;;9.72;82.20
85055;BME280;75391;48.300;16.352;2024-01-27T09:34:27;101320.81;;;9.83;78.48
85055;BME280;75391;48.300;16.352;2024-01-27T09:36:52;101329.41;;;9.94;79.85
85055;BME280;75391;48.300;16.352;2024-01-27T09:39:17;101324.34;;;9.82;80.71
85055;BME280;75391;48.300;16.352;2024-01-27T09:41:44;101341.69;;;9.98;80.50
85055;BME280;75391;48.300;16.352;2024-01-27T09:44:11;101326.75;;;9.96;76.63
85055;BME280;75391;48.300;16.352;2024-01-27T09:46:38;101342.88;;;9.28;76.14
85055;BME280;75391;48.300;16.352;2024-01-27T09:49:03;101335.06;;;9.74;83.28
85055;BME280;75391;48.300;16.352;2024-01-27T09:51:29;101334.13;;;9.24;89.82
85055;BME280;75391;48.300;16.352;2024-01-27T09:53:55;101319.88;;;9.87;93.57
85055;BME280;75391;48.300;16.352;2024-01-27T09:56:20;101340.16;;;9.32;97.51
85055;BME280;75391;48.300;16.352;2024-01-27T09:58:46;101340.63;;;9.00;100.00
85055;BME280;75391;48.300;16.352;2024-01-27T10:01:12;101327.34;;;9.60;99.84
85055;BME280;75391;48.300;16.352;2024-01-27T10:03:41;101330.97;;;8.99;97.34
85055;BME280;75391;48.300;16.352;2024-01-27T10:06:10;101317.22;;;9.36;97.37
85055;BME280;75391;48.300;16.352;2024-01-27T10:08:36;101320.66;;;9.41;99.80
85055;BME280;75391;48.300;16.352;2024-01-27T10:11:07;101313.50;;;9.48;100.00
85055;BME280;75391;48.300;16.352;2024-01-27T10:13:34;101309.56;;;8.61;100.00
85055;BME280;75391;48.300;16.352;2024-01-27T10:16:06;101293.53;;;9.82;100.00
85055;BME280;75391;48.300;16.352;2024-01-27T10:18:33;101292.38;;;9.49;100.00
85055;BME280;75391;48.300;16.352;2024-01-27T10:20:59;101285.44;;;9.42;98.13
85055;BME280;75391;48.300;16.352;2024-01-27T10:23:25;101290.41;;;10.08;93.76
85055;BME280;75391;48.300;16.352;2024-01-27T10:25:51;101291.84;;;10.26;94.00
85055;BME280;75391;48.300;16.352;2024-01-27T10:28:17;101283.38;;;9.61;91.44
85055;BME280;75391;48.300;16.352;2024-01-27T10:30:43;101294.44;;;9.32;92.78
85055;BME280;75391;48.300;16.352;2024-01-27T10:33:09;101282.31;;;10.16;85.70
85055;BME280;75391;48.300;16.352;2024-01-27T10:35:35;101283.63;;;10.80;74.41
85055;BME280;75391;48.300;16.352;2024-01-27T10:38:01;101283.25;;;10.13;65.79
85055;BME280;75391;48.300;16.352;2024-01-27T10:40:26;101281.75;;;10.00;63.68
85055;BME280;75391;48.300;16.352;2024-01-27T10:43:04;101279.53;;;9.28;63.99
85055;BME280;75391;48.300;16.352;2024-01-27T10:45:40;101276.50;;;9.51;62.77
85055;BME280;75391;48.300;16.352;2024-01-27T10:48:07;101268.16;;;10.20;63.00
85055;BME280;75391;48.300;16.352;2024-01-27T10:50:38;101273.63;;;10.11;62.58
85055;BME280;75391;48.300;16.352;2024-01-27T10:53:06;101271.13;;;10.02;62.02
85055;BME280;75391;48.300;16.352;2024-01-27T10:55:34;101288.25;;;9.82;61.58
85055;BME280;75391;48.300;16.352;2024-01-27T10:58:01;101271.53;;;9.82;61.47
85055;BME280;75391;48.300;16.352;2024-01-27T11:00:27;101278.44;;;9.89;61.54
85055;BME280;75391;48.300;16.352;2024-01-27T11:02:53;101268.75;;;9.40;61.57
85055;BME280;75391;48.300;16.352;2024-01-27T11:05:24;101268.50;;;9.55;61.77
85055;BME280;75391;48.300;16.352;2024-01-27T11:07:49;101288.75;;;9.55;62.61
85055;BME280;75391;48.300;16.352;2024-01-27T11:10:16;101276.31;;;9.61;62.18
85055;BME280;75391;48.300;16.352;2024-01-27T11:12:42;101277.34;;;9.53;62.06
85055;BME280;75391;48.300;16.352;2024-01-27T11:15:07;101283.38;;;9.61;62.10
85055;BME280;75391;48.300;16.352;2024-01-27T11:17:40;101279.28;;;9.43;61.69
85055;BME280;75391;48.300;16.352;2024-01-27T11:20:07;101296.53;;;9.62;61.72
85055;BME280;75391;48.300;16.352;2024-01-27T11:22:33;101298.25;;;9.11;62.38
85055;BME280;75391;48.300;16.352;2024-01-27T11:25:08;101317.44;;;9.75;61.84
85055;BME280;75391;48.300;16.352;2024-01-27T11:27:40;101298.59;;;9.95;61.25
85055;BME280;75391;48.300;16.352;2024-01-27T11:30:24;101294.53;;;10.23;60.82
85055;BME280;75391;48.300;16.352;2024-01-27T11:32:50;101288.06;;;9.93;60.20
85055;BME280;75391;48.300;16.352;2024-01-27T11:35:17;101307.28;;;10.00;59.66
85055;BME280;75391;48.300;16.352;2024-01-27T11:37:43;101304.16;;;9.79;59.40
85055;BME280;75391;48.300;16.352;2024-01-27T11:40:09;101320.59;;;10.41;58.94
85055;BME280;75391;48.300;16.352;2024-01-27T11:42:34;101331.00;;;10.51;58.74
85055;BME280;75391;48.300;16.352;2024-01-27T11:45:00;101324.88;;;10.01;58.84
85055;BME280;75391;48.300;16.352;2024-01-27T11:47:25;101342.09;;;9.75;59.16
85055;BME280;75391;48.300;16.352;2024-01-27T11:49:52;101332.38;;;10.27;58.96
85055;BME280;75391;48.300;16.352;2024-01-27T11:52:18;101331.69;;;10.59;59.14
85055;BME280;75391;48.300;16.352;2024-01-27T11:54:44;101332.53;;;10.16;58.64
85055;BME280;75391;48.300;16.352;2024-01-27T11:57:09;101330.16;;;10.01;58.58
85055;BME280;75391;48.300;16.352;2024-01-27T11:59:35;101323.75;;;10.59;58.10
85055;BME280;75391;48.300;16.352;2024-01-27T12:02:03;101343.38;;;10.01;58.65
85055;BME280;75391;48.300;16.352;2024-01-27T12:04:29;101336.50;;;10.40;59.30
85055;BME280;75391;48.300;16.352;2024-01-27T12:06:55;101342.28;;;10.14;59.04
85055;BME280;75391;48.300;16.352;2024-01-27T12:09:20;101334.19;;;10.23;58.96
85055;BME280;75391;48.300;16.352;2024-01-27T12:11:46;101338.53;;;10.69;58.95
85055;BME280;75391;48.300;16.352;2024-01-27T12:14:11;101336.56;;;9.89;58.77
85055;BME280;75391;48.300;16.352;2024-01-27T12:16:37;101322.91;;;10.12;58.39
85055;BME280;75391;48.300;16.352;2024-01-27T12:19:03;101326.72;;;10.45;57.73
85055;BME280;75391;48.300;16.352;2024-01-27T12:21:29;101320.41;;;10.51;57.53
85055;BME280;75391;48.300;16.352;2024-01-27T12:23:58;101317.34;;;10.29;57.31
85055;BME280;75391;48.300;16.352;2024-01-27T12:26:29;101317.28;;;10.74;57.11
85055;BME280;75391;48.300;16.352;2024-01-27T12:28:55;101336.13;;;10.12;56.80
85055;BME280;75391;48.300;16.352;2024-01-27T12:31:22;101319.06;;;11.12;56.49
85055;BME280;75391;48.300;16.352;2024-01-27T12:33:52;101322.22;;;10.49;57.26
85055;BME280;75391;48.300;16.352;2024-01-27T12:36:19;101321.34;;;10.48;56.79